sensor_id;sensor_type;location;lat;lon;timestamp;pressure;altitude;pressure_sealevel;temperature;humidity
15444;BME280;7822;48.146;11.576;2023-07-29T00:00:22;94899.97;;;19.20;81.65
15444;BME280;7822;48.146;11.576;2023-07-29T00:02:49;94898.16;;;19.20;81.82
15444;BME280;7822;48.146;11.576;2023-07-29T00:05:18;94896.53;;;19.19;81.70
15444;BME280;7822;48.146;11.576;2023-07-29T00:07:46;94892.09;;;19.20;81.97
15444;BME280;7822;48.146;11.576;2023-07-29T00:10:13;94891.25;;;19.19;81.68
15444;BME280;7822;48.146;11.576;2023-07-29T00:12:41;94893.91;;;19.19;81.96
15444;BME280;7822;48.146;11.576;2023-07-29T00:15:09;94896.53;;;19.19;81.62
15444;BME280;7822;48.146;11.576;2023-07-29T00:17:36;94897.34;;;19.20;81.66
15444;BME280;7822;48.146;11.576;2023-07-29T00:20:04;94888.44;;;19.21;81.87
15444;BME280;7822;48.146;11.576;2023-07-29T00:22:36;94889.47;;;19.20;81.58
15444;BME280;7822;48.146;11.576;2023-07-29T00:25:03;94884.19;;;19.20;81.63
15444;BME280;7822;48.146;11.576;2023-07-29T00:27:31;94887.66;;;19.20;81.76
15444;BME280;7822;48.146;11.576;2023-07-29T00:29:58;94877.91;;;19.21;81.69
15444;BME280;7822;48.146;11.576;2023-07-29T00:32:26;94868.41;;;19.20;81.57
15444;BME280;7822;48.146;11.576;2023-07-29T00:34:54;94877.91;;;19.21;81.52
15444;BME280;7822;48.146;11.576;2023-07-29T00:37:21;94877.13;;;19.20;81.56
15444;BME280;7822;48.146;11.576;2023-07-29T00:39:50;94877.91;;;19.21;81.60
15444;BME280;7822;48.146;11.576;2023-07-29T00:42:18;94878.94;;;19.20;81.67
15444;BME280;7822;48.146;11.576;2023-07-29T00:44:45;94874.50;;;19.20;81.78
15444;BME280;7822;48.146;11.576;2023-07-29T00:47:13;94875.28;;;19.21;81.65
15444;BME280;7822;48.146;11.576;2023-07-29T00:49:42;94878.94;;;19.20;81.68
15444;BME280;7822;48.146;11.576;2023-07-29T00:52:10;94877.91;;;19.21;81.86
15444;BME280;7822;48.146;11.576;2023-07-29T00:54:38;94875.28;;;19.21;81.70
15444;BME280;7822;48.146;11.576;2023-07-29T00:57:07;94876.13;;;19.21;81.69
15444;BME280;7822;48.146;11.576;2023-07-29T00:59:35;94876.31;;;19.20;81.78
15444;BME280;7822;48.146;11.576;2023-07-29T01:02:03;94869.41;;;19.19;81.89
15444;BME280;7822;48.146;11.576;2023-07-29T01:04:31;94878.13;;;19.19;81.84
15444;BME280;7822;48.146;11.576;2023-07-29T01:07:01;94885.03;;;19.20;81.69
15444;BME280;7822;48.146;11.576;2023-07-29T01:09:31;94878.94;;;19.20;81.70
15444;BME280;7822;48.146;11.576;2023-07-29T01:12:01;94878.13;;;19.19;81.70
15444;BME280;7822;48.146;11.576;2023-07-29T01:14:34;94874.66;;;19.19;81.82
15444;BME280;7822;48.146;11.576;2023-07-29T01:17:03;94870.22;;;19.19;81.96
15444;BME280;7822;48.146;11.576;2023-07-29T01:19:40;94861.50;;;19.19;81.99
15444;BME280;7822;48.146;11.576;2023-07-29T01:22:09;94863.34;;;19.18;81.76
15444;BME280;7822;48.146;11.576;2023-07-29T01:24:39;94864.16;;;19.19;81.74
15444;BME280;7822;48.146;11.576;2023-07-29T01:27:06;94865.78;;;19.20;81.75
15444;BME280;7822;48.146;11.576;2023-07-29T01:29:34;94863.34;;;19.18;81.72
15444;BME280;7822;48.146;11.576;2023-07-29T01:32:03;94854.44;;;19.19;81.69
15444;BME280;7822;48.146;11.576;2023-07-29T01:34:35;94856.44;;;19.17;81.74
15444;BME280;7822;48.146;11.576;2023-07-29T01:37:06;94846.75;;;19.18;81.74
15444;BME280;7822;48.146;11.576;2023-07-29T01:39:36;94854.63;;;19.18;81.74
15444;BME280;7822;48.146;11.576;2023-07-29T01:42:05;94850.19;;;19.18;81.74
15444;BME280;7822;48.146;11.576;2023-07-29T01:44:33;94845.72;;;19.19;81.92
15444;BME280;7822;48.146;11.576;2023-07-29T01:47:01;94852.84;;;19.18;81.74
15444;BME280;7822;48.146;11.576;2023-07-29T01:49:29;94858.09;;;19.18;82.02
15444;BME280;7822;48.146;11.576;2023-07-29T01:51:56;94855.47;;;19.18;81.86
15444;BME280;7822;48.146;11.576;2023-07-29T01:54:24;94851.00;;;19.19;81.78
15444;BME280;7822;48.146;11.576;2023-07-29T01:56:51;94852.00;;;19.18;81.69
15444;BME280;7822;48.146;11.576;2023-07-29T01:59:20;94853.63;;;19.19;81.83
15444;BME280;7822;48.146;11.576;2023-07-29T02:01:48;94844.94;;;19.18;81.70
15444;BME280;7822;48.146;11.576;2023-07-29T02:04:15;94849.38;;;19.18;81.70
15444;BME280;7822;48.146;11.576;2023-07-29T02:06:43;94848.38;;;19.19;81.62
15444;BME280;7822;48.146;11.576;2023-07-29T02:09:10;94848.38;;;19.19;81.71
15444;BME280;7822;48.146;11.576;2023-07-29T02:11:38;94846.56;;;19.19;81.75
15444;BME280;7822;48.146;11.576;2023-07-29T02:14:05;94845.72;;;19.19;81.84
15444;BME280;7822;48.146;11.576;2023-07-29T02:16:34;94836.03;;;19.19;81.77
15444;BME280;7822;48.146;11.576;2023-07-29T02:19:03;94829.16;;;19.18;81.68
15444;BME280;7822;48.146;11.576;2023-07-29T02:21:30;94843.94;;;19.19;81.69
15444;BME280;7822;48.146;11.576;2023-07-29T02:23:58;94847.56;;;19.18;81.79
15444;BME280;7822;48.146;11.576;2023-07-29T02:26:25;94842.13;;;19.20;81.72
15444;BME280;7822;48.146;11.576;2023-07-29T02:28:53;94852.84;;;19.18;81.75
15444;BME280;7822;48.146;11.576;2023-07-29T02:31:21;94847.56;;;19.18;81.73
15444;BME280;7822;48.146;11.576;2023-07-29T02:33:50;94854.44;;;19.19;81.77
15444;BME280;7822;48.146;11.576;2023-07-29T02:36:17;94847.56;;;19.18;82.08
15444;BME280;7822;48.146;11.576;2023-07-29T02:38:45;94856.25;;;19.19;81.73
15444;BME280;7822;48.146;11.576;2023-07-29T02:41:12;94860.72;;;19.18;82.06
15444;BME280;7822;48.146;11.576;2023-07-29T02:43:42;94860.72;;;19.18;81.76
15444;BME280;7822;48.146;11.576;2023-07-29T02:46:10;94863.34;;;19.18;81.74
15444;BME280;7822;48.146;11.576;2023-07-29T02:48:37;94861.72;;;19.17;81.83
15444;BME280;7822;48.146;11.576;2023-07-29T02:51:06;94859.91;;;19.18;82.00
15444;BME280;7822;48.146;11.576;2023-07-29T02:53:34;94859.06;;;19.17;82.09
15444;BME280;7822;48.146;11.576;2023-07-29T02:56:03;94853.81;;;19.17;81.76
15444;BME280;7822;48.146;11.576;2023-07-29T02:58:30;94849.56;;;19.16;82.05
15444;BME280;7822;48.146;11.576;2023-07-29T03:01:00;94842.47;;;19.17;81.94
15444;BME280;7822;48.146;11.576;2023-07-29T03:03:27;94850.38;;;19.17;81.80
15444;BME280;7822;48.146;11.576;2023-07-29T03:05:57;94853.00;;;19.17;81.88
15444;BME280;7822;48.146;11.576;2023-07-29T03:08:26;94847.72;;;19.17;81.67
15444;BME280;7822;48.146;11.576;2023-07-29T03:10:53;94846.94;;;19.16;81.87
15444;BME280;7822;48.146;11.576;2023-07-29T03:13:21;94856.44;;;19.17;81.80
15444;BME280;7822;48.146;11.576;2023-07-29T03:15:48;94844.31;;;19.16;81.82
15444;BME280;7822;48.146;11.576;2023-07-29T03:18:16;94859.06;;;19.17;81.93
15444;BME280;7822;48.146;11.576;2023-07-29T03:20:43;94847.72;;;19.17;81.95
15444;BME280;7822;48.146;11.576;2023-07-29T03:23:11;94841.69;;;19.16;81.75
15444;BME280;7822;48.146;11.576;2023-07-29T03:25:40;94827.72;;;19.16;81.90
15444;BME280;7822;48.146;11.576;2023-07-29T03:28:07;94823.28;;;19.16;81.85
15444;BME280;7822;48.146;11.576;2023-07-29T03:30:35;94819.63;;;19.17;81.75
15444;BME280;7822;48.146;11.576;2023-07-29T03:33:03;94822.25;;;19.17;81.94
15444;BME280;7822;48.146;11.576;2023-07-29T03:35:31;94822.25;;;19.17;81.79
15444;BME280;7822;48.146;11.576;2023-07-29T03:37:59;94822.25;;;19.17;81.72
15444;BME280;7822;48.146;11.576;2023-07-29T03:40:26;94830.97;;;19.18;82.07
15444;BME280;7822;48.146;11.576;2023-07-29T03:42:55;94832.78;;;19.17;81.97
15444;BME280;7822;48.146;11.576;2023-07-29T03:45:23;94837.22;;;19.17;81.85
15444;BME280;7822;48.146;11.576;2023-07-29T03:47:51;94840.66;;;19.17;82.00
15444;BME280;7822;48.146;11.576;2023-07-29T03:50:18;94844.13;;;19.18;81.98
15444;BME280;7822;48.146;11.576;2023-07-29T03:52:46;94843.31;;;19.17;81.92
15444;BME280;7822;48.146;11.576;2023-07-29T03:55:13;94845.09;;;19.17;81.72
15444;BME280;7822;48.146;11.576;2023-07-29T03:57:41;94831.97;;;19.17;82.11
15444;BME280;7822;48.146;11.576;2023-07-29T04:00:10;94842.47;;;19.17;81.75
15444;BME280;7822;48.146;11.576;2023-07-29T04:02:38;94846.94;;;19.16;81.77
15444;BME280;7822;48.146;11.576;2023-07-29T04:05:06;94827.72;;;19.16;81.90
15444;BME280;7822;48.146;11.576;2023-07-29T04:07:35;94826.69;;;19.17;82.05
15444;BME280;7822;48.146;11.576;2023-07-29T04:10:03;94828.34;;;19.18;81.80
15444;BME280;7822;48.146;11.576;2023-07-29T04:12:31;94815.38;;;19.16;81.82
15444;BME280;7822;48.146;11.576;2023-07-29T04:14:59;94809.09;;;19.17;81.84
15444;BME280;7822;48.146;11.576;2023-07-29T04:17:28;94805.50;;;19.18;82.07
15444;BME280;7822;48.146;11.576;2023-07-29T04:19:55;94805.50;;;19.18;82.03
15444;BME280;7822;48.146;11.576;2023-07-29T04:22:23;94795.75;;;19.19;81.82
15444;BME280;7822;48.146;11.576;2023-07-29T04:24:50;94794.78;;;19.20;82.08
15444;BME280;7822;48.146;11.576;2023-07-29T04:27:18;94790.50;;;19.19;81.75
15444;BME280;7822;48.146;11.576;2023-07-29T04:29:45;94789.72;;;19.18;82.09
15444;BME280;7822;48.146;11.576;2023-07-29T04:32:13;94797.41;;;19.20;81.79
15444;BME280;7822;48.146;11.576;2023-07-29T04:34:41;94792.16;;;19.20;81.84
15444;BME280;7822;48.146;11.576;2023-07-29T04:37:09;94804.28;;;19.21;81.98
15444;BME280;7822;48.146;11.576;2023-07-29T04:39:36;94796.59;;;19.19;81.83
15444;BME280;7822;48.146;11.576;2023-07-29T04:42:04;94791.13;;;19.21;81.95
15444;BME280;7822;48.146;11.576;2023-07-29T04:44:32;94794.78;;;19.20;81.92
15444;BME280;7822;48.146;11.576;2023-07-29T04:46:59;94800.88;;;19.20;81.86
15444;BME280;7822;48.146;11.576;2023-07-29T04:49:27;94800.88;;;19.20;81.93
15444;BME280;7822;48.146;11.576;2023-07-29T04:51:56;94797.41;;;19.20;82.03
15444;BME280;7822;48.146;11.576;2023-07-29T04:54:23;94796.41;;;19.21;82.01
15444;BME280;7822;48.146;11.576;2023-07-29T04:56:51;94801.66;;;19.21;81.82
15444;BME280;7822;48.146;11.576;2023-07-29T04:59:18;94799.03;;;19.21;82.03
15444;BME280;7822;48.146;11.576;2023-07-29T05:01:46;94800.88;;;19.20;82.06
15444;BME280;7822;48.146;11.576;2023-07-29T05:04:13;94797.22;;;19.21;81.92
15444;BME280;7822;48.146;11.576;2023-07-29T05:06:41;94792.97;;;19.20;81.87
15444;BME280;7822;48.146;11.576;2023-07-29T05:09:14;94790.16;;;19.22;81.92
15444;BME280;7822;48.146;11.576;2023-07-29T05:11:43;94788.34;;;19.22;82.11
15444;BME280;7822;48.146;11.576;2023-07-29T05:14:12;94777.81;;;19.22;81.85
15444;BME280;7822;48.146;11.576;2023-07-29T05:16:40;94770.75;;;19.23;82.16
15444;BME280;7822;48.146;11.576;2023-07-29T05:19:07;94768.28;;;19.21;81.80
15444;BME280;7822;48.146;11.576;2023-07-29T05:21:35;94770.75;;;19.23;81.96
15444;BME280;7822;48.146;11.576;2023-07-29T05:24:02;94776.00;;;19.23;81.84
15444;BME280;7822;48.146;11.576;2023-07-29T05:26:32;94764.66;;;19.22;81.82
15444;BME280;7822;48.146;11.576;2023-07-29T05:29:00;94775.19;;;19.22;81.88
15444;BME280;7822;48.146;11.576;2023-07-29T05:31:27;94773.38;;;19.23;81.88
15444;BME280;7822;48.146;11.576;2023-07-29T05:33:55;94783.06;;;19.22;82.14
15444;BME280;7822;48.146;11.576;2023-07-29T05:36:23;94788.34;;;19.22;82.00
15444;BME280;7822;48.146;11.576;2023-07-29T05:38:51;94790.16;;;19.22;82.23
15444;BME280;7822;48.146;11.576;2023-07-29T05:41:19;94791.78;;;19.23;82.00
15444;BME280;7822;48.146;11.576;2023-07-29T05:43:48;94790.97;;;19.22;82.10
15444;BME280;7822;48.146;11.576;2023-07-29T05:46:15;94790.16;;;19.22;81.91
15444;BME280;7822;48.146;11.576;2023-07-29T05:48:43;94793.59;;;19.22;81.95
15444;BME280;7822;48.146;11.576;2023-07-29T05:51:10;94792.78;;;19.22;82.02
15444;BME280;7822;48.146;11.576;2023-07-29T05:53:38;94800.66;;;19.22;82.17
15444;BME280;7822;48.146;11.576;2023-07-29T05:56:05;94821.53;;;19.38;83.14
15444;BME280;7822;48.146;11.576;2023-07-29T05:58:33;94845.50;;;19.50;82.29
15444;BME280;7822;48.146;11.576;2023-07-29T06:01:01;94845.69;;;19.48;81.73
15444;BME280;7822;48.146;11.576;2023-07-29T06:03:29;94830.66;;;19.42;81.86
15444;BME280;7822;48.146;11.576;2023-07-29T06:05:57;94815.44;;;19.38;81.72
15444;BME280;7822;48.146;11.576;2023-07-29T06:08:24;94796.56;;;19.34;81.86
15444;BME280;7822;48.146;11.576;2023-07-29T06:10:54;94795.91;;;19.32;82.02
15444;BME280;7822;48.146;11.576;2023-07-29T06:13:22;94787.38;;;19.30;82.02
15444;BME280;7822;48.146;11.576;2023-07-29T06:15:49;94779.69;;;19.29;82.01
15444;BME280;7822;48.146;11.576;2023-07-29T06:18:18;94791.22;;;19.28;82.10
15444;BME280;7822;48.146;11.576;2023-07-29T06:20:46;94794.03;;;19.26;82.01
15444;BME280;7822;48.146;11.576;2023-07-29T06:23:14;94789.59;;;19.27;81.88
15444;BME280;7822;48.146;11.576;2023-07-29T06:25:41;94795.84;;;19.25;81.80
15444;BME280;7822;48.146;11.576;2023-07-29T06:28:09;94803.56;;;19.27;81.86
15444;BME280;7822;48.146;11.576;2023-07-29T06:30:36;94798.47;;;19.25;81.89
15444;BME280;7822;48.146;11.576;2023-07-29T06:33:04;94819.50;;;19.25;81.91
15444;BME280;7822;48.146;11.576;2023-07-29T06:35:33;94824.59;;;19.27;81.93
15444;BME280;7822;48.146;11.576;2023-07-29T06:38:01;94825.59;;;19.26;81.78
15444;BME280;7822;48.146;11.576;2023-07-29T06:40:28;94834.09;;;19.28;81.76
15444;BME280;7822;48.146;11.576;2023-07-29T06:42:56;94853.34;;;19.29;81.66
15444;BME280;7822;48.146;11.576;2023-07-29T06:45:23;94874.19;;;19.30;81.58
15444;BME280;7822;48.146;11.576;2023-07-29T06:47:51;94874.03;;;19.32;81.84
15444;BME280;7822;48.146;11.576;2023-07-29T06:50:18;94877.28;;;19.34;81.35
15444;BME280;7822;48.146;11.576;2023-07-29T06:52:47;94878.09;;;19.34;81.60
15444;BME280;7822;48.146;11.576;2023-07-29T06:55:15;94895.34;;;19.37;81.68
15444;BME280;7822;48.146;11.576;2023-07-29T06:57:42;94883.84;;;19.38;81.44
15444;BME280;7822;48.146;11.576;2023-07-29T07:00:10;94874.13;;;19.38;81.51
15444;BME280;7822;48.146;11.576;2023-07-29T07:02:37;94883.63;;;19.39;81.80
15444;BME280;7822;48.146;11.576;2023-07-29T07:05:05;94883.47;;;19.41;81.67
15444;BME280;7822;48.146;11.576;2023-07-29T07:07:33;94876.38;;;19.41;81.72
15444;BME280;7822;48.146;11.576;2023-07-29T07:10:02;94884.09;;;19.43;81.59
15444;BME280;7822;48.146;11.576;2023-07-29T07:12:29;94874.38;;;19.43;81.46
15444;BME280;7822;48.146;11.576;2023-07-29T07:14:57;94877.00;;;19.43;81.47
15444;BME280;7822;48.146;11.576;2023-07-29T07:17:24;94872.56;;;19.44;81.48
15444;BME280;7822;48.146;11.576;2023-07-29T07:19:52;94874.22;;;19.45;81.52
15444;BME280;7822;48.146;11.576;2023-07-29T07:22:19;94881.28;;;19.44;81.27
15444;BME280;7822;48.146;11.576;2023-07-29T07:24:47;94874.03;;;19.46;81.26
15444;BME280;7822;48.146;11.576;2023-07-29T07:27:15;94871.19;;;19.48;81.34
15444;BME280;7822;48.146;11.576;2023-07-29T07:29:43;94859.88;;;19.47;81.61
15444;BME280;7822;48.146;11.576;2023-07-29T07:32:10;94852.59;;;19.49;81.55
15444;BME280;7822;48.146;11.576;2023-07-29T07:34:38;94842.09;;;19.49;81.19
15444;BME280;7822;48.146;11.576;2023-07-29T07:37:06;94842.09;;;19.49;81.11
15444;BME280;7822;48.146;11.576;2023-07-29T07:39:33;94828.72;;;19.51;81.28
15444;BME280;7822;48.146;11.576;2023-07-29T07:42:01;94826.91;;;19.51;81.15
15444;BME280;7822;48.146;11.576;2023-07-29T07:44:29;94811.31;;;19.50;81.33
15444;BME280;7822;48.146;11.576;2023-07-29T07:46:57;94810.31;;;19.51;81.33
15444;BME280;7822;48.146;11.576;2023-07-29T07:49:26;94802.41;;;19.51;81.17
15444;BME280;7822;48.146;11.576;2023-07-29T07:51:53;94818.22;;;19.51;81.37
15444;BME280;7822;48.146;11.576;2023-07-29T07:54:21;94815.78;;;19.49;81.16
15444;BME280;7822;48.146;11.576;2023-07-29T07:56:48;94814.13;;;19.48;81.23
15444;BME280;7822;48.146;11.576;2023-07-29T07:59:16;94816.97;;;19.47;81.29
15444;BME280;7822;48.146;11.576;2023-07-29T08:01:45;94814.94;;;19.49;81.68
15444;BME280;7822;48.146;11.576;2023-07-29T08:04:13;94823.03;;;19.47;81.53
15444;BME280;7822;48.146;11.576;2023-07-29T08:06:40;94813.50;;;19.46;81.48
15444;BME280;7822;48.146;11.576;2023-07-29T08:09:08;94824.22;;;19.45;81.33
15444;BME280;7822;48.146;11.576;2023-07-29T08:11:35;94827.03;;;19.43;81.49
15444;BME280;7822;48.146;11.576;2023-07-29T08:14:03;94826.03;;;19.44;81.49
15444;BME280;7822;48.146;11.576;2023-07-29T08:16:30;94825.84;;;19.46;81.47
15444;BME280;7822;48.146;11.576;2023-07-29T08:18:59;94823.22;;;19.46;81.53
15444;BME280;7822;48.146;11.576;2023-07-29T08:21:27;94818.75;;;19.46;81.76
15444;BME280;7822;48.146;11.576;2023-07-29T08:23:54;94817.16;;;19.45;81.42
15444;BME280;7822;48.146;11.576;2023-07-29T08:26:22;94818.13;;;19.44;81.75
15444;BME280;7822;48.146;11.576;2023-07-29T08:28:49;94815.72;;;19.43;81.58
15444;BME280;7822;48.146;11.576;2023-07-29T08:31:20;94817.50;;;19.42;81.84
15444;BME280;7822;48.146;11.576;2023-07-29T08:33:50;94809.81;;;19.41;81.55
15444;BME280;7822;48.146;11.576;2023-07-29T08:36:19;94823.97;;;19.40;81.78
15444;BME280;7822;48.146;11.576;2023-07-29T08:38:46;94816.06;;;19.40;81.74
15444;BME280;7822;48.146;11.576;2023-07-29T08:41:14;94814.25;;;19.40;81.94
15444;BME280;7822;48.146;11.576;2023-07-29T08:43:48;94806.53;;;19.39;81.96
15444;BME280;7822;48.146;11.576;2023-07-29T08:46:18;94807.53;;;19.38;81.76
15444;BME280;7822;48.146;11.576;2023-07-29T08:48:46;94810.13;;;19.52;82.51
15444;BME280;7822;48.146;11.576;2023-07-29T08:51:14;94817.03;;;19.53;82.04
15444;BME280;7822;48.146;11.576;2023-07-29T08:53:43;94814.94;;;19.49;81.84
15444;BME280;7822;48.146;11.576;2023-07-29T08:56:10;94818.75;;;19.46;81.92
15444;BME280;7822;48.146;11.576;2023-07-29T08:58:38;94818.34;;;19.43;81.78
15444;BME280;7822;48.146;11.576;2023-07-29T09:01:06;94817.50;;;19.42;81.80
15444;BME280;7822;48.146;11.576;2023-07-29T09:03:34;94809.00;;;19.40;82.13
15444;BME280;7822;48.146;11.576;2023-07-29T09:06:01;94820.34;;;19.41;81.81
15444;BME280;7822;48.146;11.576;2023-07-29T09:08:29;94816.88;;;19.40;81.78
15444;BME280;7822;48.146;11.576;2023-07-29T09:10:58;94824.94;;;19.39;82.06
15444;BME280;7822;48.146;11.576;2023-07-29T09:13:26;94820.50;;;19.39;82.05
15444;BME280;7822;48.146;11.576;2023-07-29T09:15:54;94826.78;;;19.38;81.84
15444;BME280;7822;48.146;11.576;2023-07-29T09:18:22;94817.25;;;19.37;82.10
15444;BME280;7822;48.146;11.576;2023-07-29T09:20:49;94814.63;;;19.37;81.93
15444;BME280;7822;48.146;11.576;2023-07-29T09:23:17;94812.81;;;19.38;82.09
15444;BME280;7822;48.146;11.576;2023-07-29T09:25:45;94818.25;;;19.36;82.00
15444;BME280;7822;48.146;11.576;2023-07-29T09:28:15;94805.13;;;19.36;81.98
15444;BME280;7822;48.146;11.576;2023-07-29T09:30:45;94820.91;;;19.36;82.14
15444;BME280;7822;48.146;11.576;2023-07-29T09:33:12;94813.00;;;19.36;81.86
15444;BME280;7822;48.146;11.576;2023-07-29T09:35:41;94806.91;;;19.36;81.97
15444;BME280;7822;48.146;11.576;2023-07-29T09:38:09;94811.16;;;19.37;81.86
15444;BME280;7822;48.146;11.576;2023-07-29T09:40:41;94804.47;;;19.34;82.08
15444;BME280;7822;48.146;11.576;2023-07-29T09:43:11;94811.34;;;19.35;81.99
15444;BME280;7822;48.146;11.576;2023-07-29T09:45:40;94815.81;;;19.35;82.11
15444;BME280;7822;48.146;11.576;2023-07-29T09:48:07;94801.81;;;19.34;81.93
15444;BME280;7822;48.146;11.576;2023-07-29T09:50:37;94808.06;;;19.33;81.84
15444;BME280;7822;48.146;11.576;2023-07-29T09:53:04;94806.25;;;19.34;81.92
15444;BME280;7822;48.146;11.576;2023-07-29T09:55:34;94806.25;;;19.34;81.90
15444;BME280;7822;48.146;11.576;2023-07-29T09:58:02;94798.53;;;19.32;81.87
15444;BME280;7822;48.146;11.576;2023-07-29T10:00:33;94802.00;;;19.33;82.22
15444;BME280;7822;48.146;11.576;2023-07-29T10:03:02;94798.53;;;19.32;82.25
15444;BME280;7822;48.146;11.576;2023-07-29T10:05:30;94794.09;;;19.33;82.24
15444;BME280;7822;48.146;11.576;2023-07-29T10:07:57;94795.13;;;19.32;82.12
15444;BME280;7822;48.146;11.576;2023-07-29T10:10:25;94787.03;;;19.33;81.99
15444;BME280;7822;48.146;11.576;2023-07-29T10:12:53;94797.75;;;19.32;81.93
15444;BME280;7822;48.146;11.576;2023-07-29T10:15:21;94786.41;;;19.31;81.85
15444;BME280;7822;48.146;11.576;2023-07-29T10:17:49;94797.56;;;19.33;82.30
15444;BME280;7822;48.146;11.576;2023-07-29T10:20:18;94782.75;;;19.32;82.16
15444;BME280;7822;48.146;11.576;2023-07-29T10:22:46;94792.66;;;19.30;82.09
15444;BME280;7822;48.146;11.576;2023-07-29T10:25:15;94785.59;;;19.31;81.85
15444;BME280;7822;48.146;11.576;2023-07-29T10:27:44;94781.34;;;19.30;82.16
15444;BME280;7822;48.146;11.576;2023-07-29T10:30:14;94770.63;;;19.31;82.03
15444;BME280;7822;48.146;11.576;2023-07-29T10:32:42;94768.97;;;19.30;81.96
15444;BME280;7822;48.146;11.576;2023-07-29T10:35:11;94768.19;;;19.30;81.96
15444;BME280;7822;48.146;11.576;2023-07-29T10:37:40;94766.19;;;19.32;82.08
15444;BME280;7822;48.146;11.576;2023-07-29T10:40:09;94765.94;;;19.48;83.42
15444;BME280;7822;48.146;11.576;2023-07-29T10:42:37;94768.06;;;19.59;85.44
15444;BME280;7822;48.146;11.576;2023-07-29T10:45:16;94758.56;;;19.58;84.24
15444;BME280;7822;48.146;11.576;2023-07-29T10:47:44;94768.41;;;19.49;82.07
15444;BME280;7822;48.146;11.576;2023-07-29T10:50:16;94764.34;;;19.47;82.10
15444;BME280;7822;48.146;11.576;2023-07-29T10:52:48;94762.25;;;19.42;82.23
15444;BME280;7822;48.146;11.576;2023-07-29T10:55:23;94767.72;;;19.41;82.56
15444;BME280;7822;48.146;11.576;2023-07-29T10:57:52;94770.53;;;19.39;82.88
15444;BME280;7822;48.146;11.576;2023-07-29T11:00:19;94761.19;;;19.37;83.13
15444;BME280;7822;48.146;11.576;2023-07-29T11:02:56;94760.56;;;19.35;83.10
15444;BME280;7822;48.146;11.576;2023-07-29T11:05:26;94763.34;;;19.33;82.91
15444;BME280;7822;48.146;11.576;2023-07-29T11:07:55;94766.97;;;19.32;82.73
15444;BME280;7822;48.146;11.576;2023-07-29T11:10:22;94760.94;;;19.32;82.65
15444;BME280;7822;48.146;11.576;2023-07-29T11:12:50;94766.97;;;19.32;82.58
15444;BME280;7822;48.146;11.576;2023-07-29T11:15:19;94753.81;;;19.32;82.32
15444;BME280;7822;48.146;11.576;2023-07-29T11:17:48;94753.03;;;19.32;82.48
15444;BME280;7822;48.146;11.576;2023-07-29T11:20:16;94753.81;;;19.32;82.27
15444;BME280;7822;48.146;11.576;2023-07-29T11:22:44;94765.00;;;19.34;82.21
15444;BME280;7822;48.146;11.576;2023-07-29T11:25:14;94782.59;;;19.34;81.97
15444;BME280;7822;48.146;11.576;2023-07-29T11:27:42;94783.25;;;19.36;81.86
15444;BME280;7822;48.146;11.576;2023-07-29T11:30:11;94778.81;;;19.36;81.80
15444;BME280;7822;48.146;11.576;2023-07-29T11:32:39;94772.34;;;19.39;81.76
15444;BME280;7822;48.146;11.576;2023-07-29T11:35:08;94767.72;;;19.41;81.56
15444;BME280;7822;48.146;11.576;2023-07-29T11:37:37;94756.19;;;19.42;81.61
15444;BME280;7822;48.146;11.576;2023-07-29T11:40:05;94766.34;;;19.45;81.43
15444;BME280;7822;48.146;11.576;2023-07-29T11:42:36;94766.16;;;19.46;81.61
15444;BME280;7822;48.146;11.576;2023-07-29T11:45:04;94763.94;;;19.50;81.48
15444;BME280;7822;48.146;11.576;2023-07-29T11:47:33;94755.06;;;19.51;81.29
15444;BME280;7822;48.146;11.576;2023-07-29T11:50:03;94764.19;;;19.55;81.24
15444;BME280;7822;48.146;11.576;2023-07-29T11:52:31;94770.91;;;19.57;80.96
15444;BME280;7822;48.146;11.576;2023-07-29T11:54:59;94760.00;;;19.60;80.92
15444;BME280;7822;48.146;11.576;2023-07-29T11:57:27;94762.09;;;19.65;80.81
15444;BME280;7822;48.146;11.576;2023-07-29T11:59:56;94755.59;;;19.67;80.74
15444;BME280;7822;48.146;11.576;2023-07-29T12:02:24;94757.03;;;19.70;80.61
15444;BME280;7822;48.146;11.576;2023-07-29T12:04:52;94745.31;;;19.72;80.37
15444;BME280;7822;48.146;11.576;2023-07-29T12:07:20;94729.34;;;19.74;80.25
15444;BME280;7822;48.146;11.576;2023-07-29T12:09:48;94737.69;;;19.77;80.34
15444;BME280;7822;48.146;11.576;2023-07-29T12:12:16;94727.78;;;19.79;80.25
15444;BME280;7822;48.146;11.576;2023-07-29T12:14:44;94733.66;;;19.81;80.03
15444;BME280;7822;48.146;11.576;2023-07-29T12:17:14;94739.53;;;19.83;80.18
15444;BME280;7822;48.146;11.576;2023-07-29T12:19:42;94727.19;;;19.84;80.04
15444;BME280;7822;48.146;11.576;2023-07-29T12:22:10;94718.94;;;19.87;79.78
15444;BME280;7822;48.146;11.576;2023-07-29T12:24:39;94718.72;;;19.88;79.62
15444;BME280;7822;48.146;11.576;2023-07-29T12:27:10;94722.97;;;19.89;79.97
15444;BME280;7822;48.146;11.576;2023-07-29T12:29:39;94721.16;;;19.90;79.77
15444;BME280;7822;48.146;11.576;2023-07-29T12:32:07;94720.97;;;19.91;79.59
15444;BME280;7822;48.146;11.576;2023-07-29T12:34:37;94698.91;;;19.92;79.51
15444;BME280;7822;48.146;11.576;2023-07-29T12:37:05;94699.53;;;19.94;79.38
15444;BME280;7822;48.146;11.576;2023-07-29T12:39:34;94702.97;;;19.95;79.61
15444;BME280;7822;48.146;11.576;2023-07-29T12:42:02;94686.97;;;19.96;79.60
15444;BME280;7822;48.146;11.576;2023-07-29T12:44:30;94708.03;;;19.96;79.56
15444;BME280;7822;48.146;11.576;2023-07-29T12:46:58;94713.13;;;19.98;79.70
15444;BME280;7822;48.146;11.576;2023-07-29T12:49:26;94713.75;;;20.00;79.60
15444;BME280;7822;48.146;11.576;2023-07-29T12:51:56;94721.66;;;20.00;79.62
15444;BME280;7822;48.146;11.576;2023-07-29T12:54:23;94727.72;;;20.01;79.43
15444;BME280;7822;48.146;11.576;2023-07-29T12:56:51;94738.06;;;20.02;79.34
15444;BME280;7822;48.146;11.576;2023-07-29T12:59:19;94716.19;;;20.02;79.20
15444;BME280;7822;48.146;11.576;2023-07-29T13:01:46;94717.78;;;20.03;79.17
15444;BME280;7822;48.146;11.576;2023-07-29T13:04:14;94744.78;;;20.05;79.58